createdAt,value
2023-05-05T00:00:31.101Z,99950.06
2023-05-05T00:02:59.609Z,99952.22
2023-05-05T00:05:28.396Z,99950.06
2023-05-05T00:07:56.742Z,99947.91
2023-05-05T00:10:26.799Z,99940.19
2023-05-05T00:12:55.299Z,99946.84
2023-05-05T00:15:23.798Z,99964.19
2023-05-05T00:17:52.313Z,99950.84
2023-05-05T00:20:21.175Z,99952.97
2023-05-05T00:22:49.529Z,99925.19
2023-05-05T00:25:18.114Z,99953.22
2023-05-05T00:27:47.831Z,99950.81
2023-05-05T00:30:16.371Z,99949.44
2023-05-05T00:32:45.573Z,99941.16
2023-05-05T00:35:14.083Z,99948.66
2023-05-05T00:37:42.499Z,99931.03
2023-05-05T00:40:12.462Z,99947.56
2023-05-05T00:42:43.052Z,99943.56
2023-05-05T00:45:14.295Z,99946.75
2023-05-05T00:47:45.625Z,99951.81
2023-05-05T00:50:23.654Z,99945.38
2023-05-05T00:52:54.820Z,99947.25
2023-05-05T00:55:23.734Z,99949.38
2023-05-05T00:57:52.256Z,99944.59
2023-05-05T01:00:22.178Z,99942.97
2023-05-05T01:02:51.318Z,99945.91
2023-05-05T01:05:20.857Z,99945.63
2023-05-05T01:08:06.983Z,99945.56
2023-05-05T01:10:41.022Z,99948.25
2023-05-05T01:13:26.336Z,99937.28
2023-05-05T01:16:03.213Z,99934.06
2023-05-05T01:18:40.343Z,99920.72
2023-05-05T01:21:15.512Z,99924.72
2023-05-05T01:24:17.744Z,99922.56
2023-05-05T01:27:10.635Z,99925.22
2023-05-05T01:30:02.098Z,99905.97
2023-05-05T01:32:36.510Z,99918.53
2023-05-05T01:35:15.182Z,99915.34
2023-05-05T01:37:52.152Z,99919.03
2023-05-05T01:40:28.452Z,99921.44
2023-05-05T01:42:58.502Z,99921.69
2023-05-05T01:45:30.761Z,99936.91
2023-05-05T01:48:01.909Z,99930.78
2023-05-05T01:50:30.952Z,99943.25
2023-05-05T01:52:59.627Z,99928.06
2023-05-05T01:55:30.475Z,99921.63
2023-05-05T01:58:00.127Z,99937.91
2023-05-05T02:00:30.484Z,99935.25
2023-05-05T02:03:02.296Z,99937.34
2023-05-05T02:05:32.117Z,99937.63
2023-05-05T02:08:01.524Z,99945.88
2023-05-05T02:10:32.177Z,99954.13
2023-05-05T02:13:02.675Z,99951.19
2023-05-05T02:15:33.696Z,99951.44
2023-05-05T02:18:06.940Z,99951.69
2023-05-05T02:20:37.642Z,99958.91
2023-05-05T02:23:07.915Z,99964.50
2023-05-05T02:25:41.348Z,99954.34
2023-05-05T02:28:16.766Z,99960.97
2023-05-05T02:30:45.480Z,99973.50
2023-05-05T02:33:21.529Z,99982.81
2023-05-05T02:35:54.874Z,99979.84
2023-05-05T02:39:20.405Z,99979.28
2023-05-05T02:41:50.935Z,99991.00
2023-05-05T02:44:27.573Z,99983.28
2023-05-05T02:46:57.321Z,99977.38
2023-05-05T02:49:27.551Z,99983.50
2023-05-05T02:52:01.023Z,99979.25
2023-05-05T02:54:34.595Z,99969.09
2023-05-05T02:57:07.005Z,99971.47
2023-05-05T02:59:47.457Z,99977.59
2023-05-05T03:02:25.832Z,99976.00
2023-05-05T03:05:02.137Z,99971.97
2023-05-05T03:07:39.882Z,99979.97
2023-05-05T03:10:11.478Z,99975.13
2023-05-05T03:12:51.109Z,99978.59
2023-05-05T03:15:29.613Z,99979.09
2023-05-05T03:18:00.509Z,99981.19
2023-05-05T03:20:31.605Z,99974.78
2023-05-05T03:23:05.749Z,99977.44
2023-05-05T03:25:45.462Z,99977.72
2023-05-05T03:28:20.667Z,99976.06
2023-05-05T03:30:49.205Z,99972.88
2023-05-05T03:33:19.885Z,99984.56
2023-05-05T03:35:50.072Z,99974.97
2023-05-05T03:38:19.762Z,99981.31
2023-05-05T03:40:48.155Z,99982.13
2023-05-05T03:43:20.780Z,99990.13
2023-05-05T03:45:50.534Z,99989.84
2023-05-05T03:48:19.516Z,99986.88
2023-05-05T03:50:50.069Z,99985.25
2023-05-05T03:53:20.682Z,99990.25
2023-05-05T03:55:49.313Z,99998.25
2023-05-05T03:58:17.653Z,100010.25
2023-05-05T04:00:46.057Z,100016.06
2023-05-05T04:03:15.014Z,100006.44
2023-05-05T04:05:44.671Z,100011.22
2023-05-05T04:08:14.582Z,100002.69
2023-05-05T04:10:42.993Z,100009.88
2023-05-05T04:13:11.981Z,100015.47
2023-05-05T04:15:46.961Z,100006.09
2023-05-05T04:18:16.690Z,100013.28
2023-05-05T04:20:45.317Z,100013.28
2023-05-05T04:23:26.390Z,100008.22
2023-05-05T04:25:55.222Z,100015.38
2023-05-05T04:28:23.815Z,100005.00
2023-05-05T04:30:52.216Z,100009.53
2023-05-05T04:33:21.089Z,100000.47
2023-05-05T04:35:51.277Z,100011.13
2023-05-05T04:38:22.483Z,99994.53
2023-05-05T04:40:50.876Z,100016.16
2023-05-05T04:43:19.872Z,100023.59
2023-05-05T04:45:55.263Z,100027.56
2023-05-05T04:48:26.701Z,100029.94
2023-05-05T04:50:55.001Z,100031.81
2023-05-05T04:53:24.887Z,100037.13
2023-05-05T04:55:55.390Z,100032.88
2023-05-05T04:58:23.829Z,100038.19
2023-05-05T05:00:52.226Z,100034.47
2023-05-05T05:03:20.688Z,100039.81
2023-05-05T05:05:49.125Z,100039.00
2023-05-05T05:08:17.869Z,100041.94
2023-05-05T05:10:47.539Z,100032.31
2023-05-05T05:13:15.899Z,100028.78
2023-05-05T05:15:44.374Z,100038.69
2023-05-05T05:18:13.438Z,100040.56
2023-05-05T05:20:41.830Z,100049.34
2023-05-05T05:23:10.529Z,100054.94
2023-05-05T05:25:44.115Z,100045.56
2023-05-05T05:28:16.075Z,100054.94
2023-05-05T05:30:49.750Z,100052.28
2023-05-05T05:33:18.052Z,100053.06
2023-05-05T05:35:47.029Z,100050.16
2023-05-05T05:38:15.774Z,100048.53
2023-05-05T05:40:44.188Z,100050.94
2023-05-05T05:43:12.703Z,100050.41
2023-05-05T05:45:42.632Z,100060.56
2023-05-05T05:48:11.624Z,100061.91
2023-05-05T05:50:40.214Z,100062.69
2023-05-05T05:54:36.420Z,100062.16
2023-05-05T05:57:06.933Z,100064.56
2023-05-05T05:59:35.465Z,100060.88
2023-05-05T06:02:05.367Z,100061.72
2023-05-05T06:04:35.121Z,100068.41
2023-05-05T06:07:03.766Z,100065.00
2023-05-05T06:09:32.347Z,100075.94
2023-05-05T06:12:01.954Z,100071.72
2023-05-05T06:14:30.751Z,100068.84
2023-05-05T06:16:59.740Z,100065.41
2023-05-05T06:19:31.790Z,100067.31
2023-05-05T06:22:03.359Z,100071.88
2023-05-05T06:24:32.367Z,100063.16
2023-05-05T06:27:02.423Z,100066.38
2023-05-05T06:29:30.815Z,100068.56
2023-05-05T06:32:24.809Z,100067.53
2023-05-05T06:34:58.104Z,100071.88
2023-05-05T06:40:28.642Z,100076.31
2023-05-05T06:43:10.416Z,100069.97
2023-05-05T06:45:44.501Z,100050.03
2023-05-05T06:48:13.599Z,100067.16
2023-05-05T06:50:43.518Z,100069.09
2023-05-05T06:53:12.439Z,100061.69
2023-05-05T06:55:45.161Z,100061.22
2023-05-05T07:02:52.420Z,100070.66
2023-05-05T07:05:21.108Z,100077.66
2023-05-05T07:07:54.636Z,100071.34
2023-05-05T07:10:24.428Z,100065.00
2023-05-05T07:12:54.891Z,100064.25
2023-05-05T07:15:27.961Z,100062.44
2023-05-05T07:17:57.764Z,100063.28
2023-05-05T07:20:29.236Z,100072.94
2023-05-05T07:22:58.969Z,100064.94
2023-05-05T07:25:27.628Z,100060.44
2023-05-05T07:27:56.468Z,100077.31
2023-05-05T07:30:25.995Z,100069.09
2023-05-05T07:32:55.228Z,100072.59
2023-05-05T07:35:24.221Z,100075.00
2023-05-05T07:37:52.626Z,100076.63
2023-05-05T07:40:22.515Z,100062.97
2023-05-05T07:42:50.976Z,100066.19
2023-05-05T07:45:19.632Z,100065.16
2023-05-05T07:47:48.184Z,100069.16
2023-05-05T07:50:19.137Z,100060.31
2023-05-05T07:52:51.711Z,100073.69
2023-05-05T07:55:26.008Z,100058.91
2023-05-05T07:57:55.484Z,100055.13
2023-05-05T08:00:23.955Z,100063.94
2023-05-05T08:02:52.357Z,100064.47
2023-05-05T08:05:20.895Z,100057.47
2023-05-05T08:07:49.243Z,100052.06
2023-05-05T08:10:17.784Z,100046.66
2023-05-05T08:12:47.535Z,100057.31
2023-05-05T08:15:15.955Z,100056.75
2023-05-05T08:17:49.194Z,100057.50
2023-05-05T08:20:18.603Z,100059.28
2023-05-05T08:22:47.531Z,100053.66
2023-05-05T08:25:16.151Z,100048.75
2023-05-05T08:27:44.656Z,100043.56
2023-05-05T08:30:17.177Z,100044.00
2023-05-05T08:32:45.602Z,100046.91
2023-05-05T08:39:21.976Z,100044.38
2023-05-05T08:41:50.488Z,100036.50
2023-05-05T08:44:18.929Z,100039.38
2023-05-05T08:46:50.525Z,100046.03
2023-05-05T08:49:20.121Z,100036.28
2023-05-05T08:51:48.793Z,100039.41
2023-05-05T08:54:35.976Z,100040.16
2023-05-05T08:57:08.895Z,100042.50
2023-05-05T08:59:38.400Z,100042.16
2023-05-05T09:02:10.365Z,100039.13
2023-05-05T09:04:39.015Z,100043.88
2023-05-05T09:07:07.691Z,100037.06
2023-05-05T09:14:13.254Z,100035.88
2023-05-05T09:16:44.852Z,100041.69
2023-05-05T09:19:14.658Z,100037.78
2023-05-05T09:21:49.297Z,100035.53
2023-05-05T09:24:18.727Z,100033.00
2023-05-05T09:26:49.813Z,100034.53
2023-05-05T09:29:21.779Z,100028.50
2023-05-05T09:32:05.867Z,100023.25
2023-05-05T09:34:37.159Z,100019.88
2023-05-05T09:37:06.199Z,100014.69
2023-05-05T09:39:41.926Z,100016.16
2023-05-05T09:43:08.061Z,100011.81
2023-05-05T09:45:36.939Z,100006.66
2023-05-05T09:48:07.404Z,100007.34
2023-05-05T09:50:45.868Z,100008.06
2023-05-05T09:53:14.376Z,100011.47
2023-05-05T09:57:03.019Z,100001.50
2023-05-05T09:59:31.415Z,100000.63
2023-05-05T10:02:12.829Z,100008.00
2023-05-05T10:04:41.666Z,100001.44
2023-05-05T10:07:24.869Z,99995.97
2023-05-05T10:09:53.378Z,100003.38
2023-05-05T10:12:22.069Z,100001.59
2023-05-05T10:19:08.603Z,100003.97
2023-05-05T10:21:42.147Z,100010.56
2023-05-05T10:24:21.982Z,100001.88
2023-05-05T10:26:53.032Z,99996.09
2023-05-05T10:29:37.209Z,100004.06
2023-05-05T10:32:40.613Z,99990.00
2023-05-05T10:35:11.418Z,99991.19
2023-05-05T10:37:40.186Z,99994.78
2023-05-05T10:40:11.841Z,99993.09
2023-05-05T10:42:41.521Z,99994.28
2023-05-05T10:45:10.863Z,99981.53
2023-05-05T10:47:40.978Z,99980.59
2023-05-05T10:50:18.872Z,99975.88
2023-05-05T10:52:59.680Z,99964.00
2023-05-05T10:58:04.853Z,99985.56
2023-05-05T11:01:02.743Z,99963.84
2023-05-05T11:03:40.807Z,99959.13
2023-05-05T11:06:16.511Z,99961.72
2023-05-05T11:09:29.834Z,99977.91
2023-05-05T11:12:07.112Z,99958.88
2023-05-05T11:14:35.783Z,99967.66
2023-05-05T11:17:04.307Z,99955.16
2023-05-05T11:19:49.041Z,99963.25
2023-05-05T11:22:17.835Z,99956.44
2023-05-05T11:24:48.126Z,99949.13
2023-05-05T11:27:16.707Z,99956.00
2023-05-05T11:30:09.740Z,99950.94
2023-05-05T11:32:38.538Z,99946.84
2023-05-05T11:35:08.436Z,99945.41
2023-05-05T11:37:47.019Z,99947.81
2023-05-05T11:43:23.446Z,99936.25
2023-05-05T11:46:10.894Z,99935.47
2023-05-05T11:48:47.000Z,99931.22
2023-05-05T11:51:16.245Z,99928.22
2023-05-05T11:54:29.042Z,99923.13
2023-05-05T11:57:02.100Z,99932.00
2023-05-05T11:59:30.702Z,99933.63
2023-05-05T12:01:59.553Z,99918.22
2023-05-05T12:04:28.393Z,99922.50
2023-05-05T12:06:56.995Z,99911.09
2023-05-05T12:09:25.629Z,99905.34
2023-05-05T12:11:56.412Z,99902.22
2023-05-05T12:14:27.785Z,99903.19
2023-05-05T12:16:56.881Z,99902.25
2023-05-05T12:19:29.887Z,99898.31
2023-05-05T12:21:58.536Z,99906.28
2023-05-05T12:24:27.310Z,99899.34
2023-05-05T12:26:55.925Z,99896.00
2023-05-05T12:29:30.626Z,99883.78
2023-05-05T12:32:00.381Z,99895.88
2023-05-05T12:34:29.105Z,99887.31
2023-05-05T12:36:57.657Z,99893.69
2023-05-05T12:39:36.325Z,99892.25
2023-05-05T12:42:06.446Z,99887.47
2023-05-05T12:44:40.270Z,99880.78
2023-05-05T12:47:09.039Z,99869.34
2023-05-05T12:49:50.922Z,99873.34
2023-05-05T12:52:21.170Z,99872.22
2023-05-05T12:54:56.995Z,99874.31
2023-05-05T13:01:13.463Z,99865.25
2023-05-05T13:03:42.089Z,99849.81
2023-05-05T13:06:24.734Z,99861.13
2023-05-05T13:08:53.315Z,99852.34
2023-05-05T13:11:21.877Z,99846.31
2023-05-05T13:13:50.477Z,99844.56
2023-05-05T13:16:20.973Z,99843.31
2023-05-05T13:18:51.315Z,99825.81
2023-05-05T13:21:28.322Z,99828.97
2023-05-05T13:24:11.965Z,99822.34
2023-05-05T13:26:47.871Z,99828.25
2023-05-05T13:32:33.579Z,99819.63
2023-05-05T13:35:02.140Z,99819.63
2023-05-05T13:37:30.580Z,99821.56
2023-05-05T13:40:00.467Z,99811.53
2023-05-05T13:42:28.949Z,99808.03
2023-05-05T13:45:08.335Z,99810.72
2023-05-05T13:47:38.469Z,99821.22
2023-05-05T13:50:08.653Z,99810.72
2023-05-05T13:52:37.548Z,99809.16
2023-05-05T13:55:07.793Z,99814.72
2023-05-05T13:57:36.626Z,99815.81
2023-05-05T14:00:06.504Z,99814.22
2023-05-05T14:02:37.471Z,99812.16
2023-05-05T14:05:07.614Z,99808.66
2023-05-05T14:07:36.328Z,99804.66
2023-05-05T14:10:05.343Z,99812.47
2023-05-05T14:12:34.058Z,99798.63
2023-05-05T14:15:02.786Z,99797.03
2023-05-05T14:17:31.342Z,99797.84
2023-05-05T14:20:01.340Z,99792.41
2023-05-05T14:22:29.971Z,99793.50
2023-05-05T14:24:58.714Z,99788.44
2023-05-05T14:27:32.294Z,99796.88
2023-05-05T14:30:01.822Z,99795.25
2023-05-05T14:32:30.425Z,99779.22
2023-05-05T14:35:00.461Z,99792.41
2023-05-05T14:37:29.087Z,99771.56
2023-05-05T14:39:58.254Z,99788.91
2023-05-05T14:42:27.100Z,99789.69
2023-05-05T14:44:55.683Z,99787.78
2023-05-05T14:47:28.639Z,99785.91
2023-05-05T14:50:01.689Z,99783.19
2023-05-05T14:52:56.885Z,99794.81
2023-05-05T14:55:26.184Z,99790.34
2023-05-05T14:57:54.650Z,99794.00
2023-05-05T15:00:23.231Z,99794.66
2023-05-05T15:02:51.917Z,99792.25
2023-05-05T15:05:21.940Z,99793.19
2023-05-05T15:07:50.488Z,99792.88
2023-05-05T15:10:21.699Z,99783.50
2023-05-05T15:12:51.210Z,99782.22
2023-05-05T15:15:20.067Z,99766.97
2023-05-05T15:17:48.723Z,99782.06
2023-05-05T15:20:17.356Z,99779.22
2023-05-05T15:23:38.286Z,99787.94
2023-05-05T15:26:06.782Z,99781.25
2023-05-05T15:28:35.416Z,99785.38
2023-05-05T15:31:03.865Z,99780.31
2023-05-05T15:33:32.469Z,99794.13
2023-05-05T15:36:01.210Z,99796.69
2023-05-05T15:38:30.751Z,99798.69
2023-05-05T15:41:00.748Z,99832.34
2023-05-05T15:43:29.424Z,99850.31
2023-05-05T15:46:15.897Z,99856.13
2023-05-05T15:48:44.440Z,99868.00
2023-05-05T15:51:13.747Z,99867.19
2023-05-05T15:53:42.306Z,99869.16
2023-05-05T15:56:12.235Z,99857.63
2023-05-05T15:58:40.799Z,99856.94
2023-05-05T16:01:09.312Z,99872.78
2023-05-05T16:03:37.809Z,99869.22
2023-05-05T16:06:06.800Z,99867.75
2023-05-05T16:08:35.256Z,99878.16
2023-05-05T16:11:03.729Z,99877.97
2023-05-05T16:13:33.648Z,99886.22
2023-05-05T16:16:02.160Z,99901.69
2023-05-05T16:18:30.703Z,99901.00
2023-05-05T16:20:59.253Z,99908.09
2023-05-05T16:23:27.789Z,99917.72
2023-05-05T16:25:56.213Z,99927.19
2023-05-05T16:28:24.832Z,99934.91
2023-05-05T16:30:54.770Z,99949.47
2023-05-05T16:33:23.274Z,99955.47
2023-05-05T16:35:51.684Z,99955.09
2023-05-05T16:38:20.161Z,99950.59
2023-05-05T16:40:48.704Z,99949.59
2023-05-05T16:43:17.229Z,99937.63
2023-05-05T16:45:46.619Z,99941.72
2023-05-05T16:48:18.453Z,99931.94
2023-05-05T16:50:46.907Z,99938.72
2023-05-05T16:53:15.383Z,99926.91
2023-05-05T16:55:46.546Z,99919.75
2023-05-05T16:58:14.922Z,99924.94
2023-05-05T17:00:46.696Z,99918.56
2023-05-05T17:03:16.599Z,99927.50
2023-05-05T17:05:45.785Z,99921.63
2023-05-05T17:08:15.779Z,99919.00
2023-05-05T17:10:45.326Z,99922.34
2023-05-05T17:13:15.252Z,99925.63
2023-05-05T17:15:44.475Z,99906.84
2023-05-05T17:18:12.827Z,99908.84
2023-05-05T17:20:42.838Z,99916.72
2023-05-05T17:23:11.231Z,99912.22
2023-05-05T17:25:39.574Z,99907.44
2023-05-05T17:28:07.935Z,99906.13
2023-05-05T17:30:37.633Z,99902.75
2023-05-05T17:33:06.174Z,99900.34
2023-05-05T17:35:34.552Z,99918.16
2023-05-05T17:38:04.587Z,99918.25
2023-05-05T17:40:36.152Z,99922.31
2023-05-05T17:43:04.655Z,99923.69
2023-05-05T17:45:33.023Z,99920.00
2023-05-05T17:48:01.557Z,99925.97
2023-05-05T17:50:30.004Z,99921.16
2023-05-05T17:52:58.375Z,99927.63
2023-05-05T17:55:28.468Z,99927.44
2023-05-05T17:57:57.418Z,99931.50
2023-05-05T18:00:26.329Z,99930.50
2023-05-05T18:02:54.773Z,99934.59
2023-05-05T18:05:23.412Z,99916.91
2023-05-05T18:07:51.827Z,99929.25
2023-05-05T18:10:20.430Z,99927.94
2023-05-05T18:12:50.322Z,99927.75
2023-05-05T18:15:18.742Z,99932.63
2023-05-05T18:17:47.193Z,99929.41
2023-05-05T18:20:16.128Z,99927.31
2023-05-05T18:22:45.543Z,99932.19
2023-05-05T18:25:14.045Z,99931.97
2023-05-05T18:27:43.884Z,99954.84
2023-05-05T18:30:14.516Z,99948.19
2023-05-05T18:32:42.876Z,99944.47
2023-05-05T18:35:11.774Z,99943.97
2023-05-05T18:37:41.553Z,99951.50
2023-05-05T18:40:11.499Z,99945.88
2023-05-05T18:42:39.929Z,99950.78
2023-05-05T18:45:10.588Z,99947.06
2023-05-05T18:47:41.511Z,99933.91
2023-05-05T18:50:10.987Z,99931.50
2023-05-05T18:52:39.475Z,99945.53
2023-05-05T18:55:08.859Z,99950.38
2023-05-05T18:57:37.459Z,99950.16
2023-05-05T19:00:07.409Z,99948.06
2023-05-05T19:02:35.825Z,99950.22
2023-05-05T19:05:06.956Z,99966.94
2023-05-05T19:07:36.779Z,99964.00
2023-05-05T19:10:06.898Z,99965.38
2023-05-05T19:12:35.791Z,99972.94
2023-05-05T19:15:04.289Z,99974.84
2023-05-05T19:17:32.879Z,99974.63
2023-05-05T19:20:01.615Z,99993.97
2023-05-05T19:22:31.753Z,99992.38
2023-05-05T19:25:00.266Z,99987.84
2023-05-05T19:27:28.835Z,99995.91
2023-05-05T19:29:57.380Z,99998.91
2023-05-05T19:32:25.785Z,100003.75
2023-05-05T19:34:54.642Z,99995.19
2023-05-05T19:37:23.225Z,99999.53
2023-05-05T19:39:53.027Z,99999.81
2023-05-05T19:42:21.673Z,100006.84
2023-05-05T19:44:50.115Z,100008.19
2023-05-05T19:47:18.496Z,99999.63
2023-05-05T19:49:46.829Z,100000.47
2023-05-05T19:52:15.268Z,99999.63
2023-05-05T19:54:43.944Z,99999.41
2023-05-05T19:57:13.802Z,99999.69
2023-05-05T19:59:42.777Z,99991.13
2023-05-05T20:02:12.231Z,100009.72
2023-05-05T20:04:40.679Z,100022.91
2023-05-05T20:07:09.245Z,100019.69
2023-05-05T20:09:38.050Z,100016.47
2023-05-05T20:12:07.627Z,100016.53
2023-05-05T20:14:37.461Z,100011.72
2023-05-05T20:17:05.871Z,100008.81
2023-05-05T20:19:35.487Z,100011.78
2023-05-05T20:22:03.960Z,100010.44
2023-05-05T20:24:33.845Z,99994.91
2023-05-05T20:27:02.497Z,100005.69
2023-05-05T20:29:30.936Z,100005.69
2023-05-05T20:32:00.829Z,100003.88
2023-05-05T20:34:29.195Z,100005.47
2023-05-05T20:36:59.093Z,100013.03
2023-05-05T20:39:27.528Z,100010.91
2023-05-05T20:41:55.946Z,100005.00
2023-05-05T20:44:24.505Z,100003.69
2023-05-05T20:46:52.873Z,100012.00
2023-05-05T20:49:22.637Z,100011.50
2023-05-05T20:51:51.101Z,100008.28
2023-05-05T20:54:19.531Z,100010.19
2023-05-05T20:56:47.912Z,100018.53
2023-05-05T20:59:16.254Z,100011.53
2023-05-05T21:01:44.814Z,100012.34
2023-05-05T21:04:13.224Z,100026.31
2023-05-05T21:06:42.997Z,100030.06
2023-05-05T21:09:11.651Z,100028.75
2023-05-05T21:11:40.043Z,100024.47
2023-05-05T21:14:08.482Z,100036.53
2023-05-05T21:16:36.934Z,100028.78
2023-05-05T21:19:05.786Z,100023.44
2023-05-05T21:21:34.200Z,100026.13
2023-05-05T21:24:05.571Z,100038.47
2023-05-05T21:26:36.153Z,100034.50
2023-05-05T21:29:04.872Z,100022.69
2023-05-05T21:31:33.350Z,100022.47
2023-05-05T21:34:01.766Z,100019.28
2023-05-05T21:36:30.234Z,100019.81
2023-05-05T21:39:00.350Z,100020.38
2023-05-05T21:41:30.285Z,100026.00
2023-05-05T21:43:59.370Z,100023.59
2023-05-05T21:46:27.842Z,100019.31
2023-05-05T21:48:56.368Z,100019.31
2023-05-05T21:51:24.775Z,100022.56
2023-05-05T21:53:53.182Z,100016.38
2023-05-05T21:56:21.698Z,100027.41
2023-05-05T21:58:51.486Z,100026.59
2023-05-05T22:01:19.881Z,100032.22
2023-05-05T22:03:48.499Z,100024.47
2023-05-05T22:06:17.961Z,100025.00
2023-05-05T22:08:46.420Z,100027.97
2023-05-05T22:11:15.040Z,100032.81
2023-05-05T22:13:43.658Z,100024.22
2023-05-05T22:16:13.596Z,100024.50
2023-05-05T22:18:42.041Z,100023.72
2023-05-05T22:21:10.448Z,100021.28
2023-05-05T22:23:41.442Z,100031.75
2023-05-05T22:26:10.065Z,100043.84
2023-05-05T22:28:38.628Z,100036.06
2023-05-05T22:31:07.216Z,100035.56
2023-05-05T22:33:37.345Z,100039.28
2023-05-05T22:36:06.275Z,100038.22
2023-05-05T22:38:34.660Z,100038.75
2023-05-05T22:41:03.022Z,100044.38
2023-05-05T22:43:31.675Z,100039.31
2023-05-05T22:46:00.114Z,100049.50
2023-05-05T22:48:28.517Z,100040.13
2023-05-05T22:50:59.929Z,100039.06
2023-05-05T22:53:28.364Z,100038.28
2023-05-05T22:55:58.312Z,100029.69
2023-05-05T22:58:27.053Z,100030.81
2023-05-05T23:00:55.426Z,100031.06
2023-05-05T23:03:23.975Z,100034.81
2023-05-05T23:05:52.330Z,100034.56
2023-05-05T23:08:24.020Z,100047.16
2023-05-05T23:10:52.371Z,100027.34
2023-05-05T23:13:21.029Z,100028.16
2023-05-05T23:15:49.422Z,100033.53
2023-05-05T23:18:17.816Z,100027.09
2023-05-05T23:20:46.319Z,100038.06
2023-05-05T23:23:14.639Z,100043.97
2023-05-05T23:25:44.361Z,100047.97
2023-05-05T23:28:12.730Z,100038.88
2023-05-05T23:30:41.287Z,100038.88
2023-05-05T23:33:09.785Z,100041.31
2023-05-05T23:35:39.526Z,100060.59
2023-05-05T23:38:07.891Z,100042.41
2023-05-05T23:40:36.297Z,100034.91
2023-05-05T23:43:06.006Z,100038.13
2023-05-05T23:45:34.514Z,100036.53
2023-05-05T23:48:02.880Z,100046.69
2023-05-05T23:50:31.320Z,100035.47
2023-05-05T23:52:59.698Z,100031.97
2023-05-05T23:55:28.033Z,100032.25
2023-05-05T23:57:56.415Z,100038.88
